Nome Airport Nome US
ICAO: PAOM
IATA:
Category: Medium
Scheduled Services:

Elevation: 37 ft
TransAlt. 18000 ft.

Airport Communications:
ASOS:119.925
ATIS:119.925
ANCHORAGE CNTR:133.3
CTAF:123.6
RDO:122.45
TWEB:115

PAOM Zoom In..

Runways:

(A) RW 03 length 5576 ft width 150 ft
---- / hdg 28

(B) RW 10 length 6001 ft width 150 ft
---- / hdg 96

(C) RW 21 length 5576 ft width 150 ft
---- / hdg 208

(D) RW 28 length 6001 ft width 150 ft
ILS 108.70 / hdg 276

Location; PAOM
Day. 22 / Time. 23.53 Zulu
* Altimeter: 30.34
* Temperature: -28° c. 18.4°f.
* Wind from: 000° Speed 00 kn.
Dewpoint: -31° c.
Visibility: 10 Statute Miles.
Clouds: Few 2100 ft.

PAOM 222353Z 00000KT 10SM FEW021 M28/M31 A3034 RMK AO2 SLP275 T12831311 11256 21300 51002 $


Wind - Calm.

YouTube Music Video
 
jpsmedia.com for Web Design  worldairports.se 2018   terms of use